sensor_id;sensor_type;location;lat;lon;timestamp;pressure;altitude;pressure_sealevel;temperature;humidity
64189;BME280;50493;50.970;10.082;2023-05-20T00:00:04;99862.63;;;15.27;46.10
64189;BME280;50493;50.970;10.082;2023-05-20T00:02:30;99873.25;;;14.67;47.49
64189;BME280;50493;50.970;10.082;2023-05-20T00:04:56;99870.16;;;14.82;47.37
64189;BME280;50493;50.970;10.082;2023-05-20T00:07:22;99868.38;;;13.95;49.76
64189;BME280;50493;50.970;10.082;2023-05-20T00:09:48;99872.13;;;14.17;49.14
64189;BME280;50493;50.970;10.082;2023-05-20T00:12:13;99863.06;;;14.58;48.21
64189;BME280;50493;50.970;10.082;2023-05-20T00:14:39;99858.44;;;14.06;49.78
64189;BME280;50493;50.970;10.082;2023-05-20T00:17:04;99859.78;;;14.49;48.27
64189;BME280;50493;50.970;10.082;2023-05-20T00:19:29;99863.78;;;14.33;49.01
64189;BME280;50493;50.970;10.082;2023-05-20T00:21:55;99859.41;;;14.62;48.11
64189;BME280;50493;50.970;10.082;2023-05-20T00:24:23;99859.88;;;14.46;48.75
64189;BME280;50493;50.970;10.082;2023-05-20T00:26:48;99876.19;;;13.29;51.99
64189;BME280;50493;50.970;10.082;2023-05-20T00:29:14;99856.56;;;13.44;51.30
64189;BME280;50493;50.970;10.082;2023-05-20T00:31:39;99860.75;;;13.51;51.15
64189;BME280;50493;50.970;10.082;2023-05-20T00:34:04;99850.47;;;13.75;50.54
64189;BME280;50493;50.970;10.082;2023-05-20T00:36:30;99846.75;;;13.83;50.92
64189;BME280;50493;50.970;10.082;2023-05-20T00:38:55;99844.81;;;13.92;49.86
64189;BME280;50493;50.970;10.082;2023-05-20T00:41:22;99847.56;;;13.86;50.88
64189;BME280;50493;50.970;10.082;2023-05-20T00:43:47;99846.06;;;13.09;53.34
64189;BME280;50493;50.970;10.082;2023-05-20T00:46:13;99840.84;;;13.42;51.67
64189;BME280;50493;50.970;10.082;2023-05-20T00:48:39;99832.25;;;13.70;50.89
64189;BME280;50493;50.970;10.082;2023-05-20T00:51:06;99829.75;;;12.59;54.51
64189;BME280;50493;50.970;10.082;2023-05-20T00:53:32;99835.13;;;13.26;52.81
64189;BME280;50493;50.970;10.082;2023-05-20T00:55:58;99834.41;;;12.85;54.01
64189;BME280;50493;50.970;10.082;2023-05-20T00:58:25;99835.31;;;12.43;55.50
64189;BME280;50493;50.970;10.082;2023-05-20T01:00:51;99823.00;;;12.86;53.71
64189;BME280;50493;50.970;10.082;2023-05-20T01:03:16;99828.59;;;13.08;53.18
64189;BME280;50493;50.970;10.082;2023-05-20T01:05:42;99841.94;;;12.61;54.65
64189;BME280;50493;50.970;10.082;2023-05-20T01:08:07;99835.78;;;12.61;54.09
64189;BME280;50493;50.970;10.082;2023-05-20T01:10:35;99826.63;;;13.16;53.20
64189;BME280;50493;50.970;10.082;2023-05-20T01:13:03;99825.41;;;13.30;52.73
64189;BME280;50493;50.970;10.082;2023-05-20T01:15:32;99822.53;;;13.05;52.45
64189;BME280;50493;50.970;10.082;2023-05-20T01:18:00;99809.63;;;12.97;53.36
64189;BME280;50493;50.970;10.082;2023-05-20T01:20:30;99817.13;;;12.36;56.03
64189;BME280;50493;50.970;10.082;2023-05-20T01:22:58;99825.22;;;12.65;54.94
64189;BME280;50493;50.970;10.082;2023-05-20T01:25:24;99830.13;;;12.81;54.50
64189;BME280;50493;50.970;10.082;2023-05-20T01:27:51;99823.72;;;12.93;53.43
64189;BME280;50493;50.970;10.082;2023-05-20T01:30:17;99821.34;;;12.43;55.94
64189;BME280;50493;50.970;10.082;2023-05-20T01:32:46;99813.94;;;12.62;53.82
64189;BME280;50493;50.970;10.082;2023-05-20T01:35:13;99817.72;;;13.24;53.30
64189;BME280;50493;50.970;10.082;2023-05-20T01:37:39;99816.75;;;13.26;53.41
64189;BME280;50493;50.970;10.082;2023-05-20T01:40:07;99831.31;;;12.66;54.96
64189;BME280;50493;50.970;10.082;2023-05-20T01:42:34;99807.44;;;12.39;55.35
64189;BME280;50493;50.970;10.082;2023-05-20T01:45:00;99807.28;;;12.86;54.92
64189;BME280;50493;50.970;10.082;2023-05-20T01:47:26;99804.16;;;12.29;56.31
64189;BME280;50493;50.970;10.082;2023-05-20T01:49:52;99807.63;;;12.30;54.72
64189;BME280;50493;50.970;10.082;2023-05-20T01:52:18;99809.38;;;11.90;57.67
64189;BME280;50493;50.970;10.082;2023-05-20T01:54:43;99805.81;;;12.73;53.60
64189;BME280;50493;50.970;10.082;2023-05-20T01:57:16;99809.53;;;13.00;53.23
64189;BME280;50493;50.970;10.082;2023-05-20T01:59:41;99796.53;;;12.19;57.20
64189;BME280;50493;50.970;10.082;2023-05-20T02:02:07;99790.41;;;12.59;55.32
64189;BME280;50493;50.970;10.082;2023-05-20T02:04:32;99805.00;;;13.07;54.43
64189;BME280;50493;50.970;10.082;2023-05-20T02:06:57;99802.19;;;13.14;53.16
64189;BME280;50493;50.970;10.082;2023-05-20T02:09:23;99795.22;;;13.13;52.76
64189;BME280;50493;50.970;10.082;2023-05-20T02:11:48;99787.91;;;13.25;52.10
64189;BME280;50493;50.970;10.082;2023-05-20T02:14:15;99798.59;;;12.43;56.52
64189;BME280;50493;50.970;10.082;2023-05-20T02:16:40;99789.97;;;13.13;53.75
64189;BME280;50493;50.970;10.082;2023-05-20T02:19:06;99793.25;;;13.22;50.96
64189;BME280;50493;50.970;10.082;2023-05-20T02:21:36;99789.28;;;12.30;56.03
64189;BME280;50493;50.970;10.082;2023-05-20T02:24:02;99795.66;;;12.95;54.95
64189;BME280;50493;50.970;10.082;2023-05-20T02:26:29;99796.03;;;12.79;52.44
64189;BME280;50493;50.970;10.082;2023-05-20T02:28:55;99806.50;;;12.81;55.60
64189;BME280;50493;50.970;10.082;2023-05-20T02:31:21;99793.34;;;13.19;54.02
64189;BME280;50493;50.970;10.082;2023-05-20T02:33:47;99802.25;;;13.11;54.18
64189;BME280;50493;50.970;10.082;2023-05-20T02:36:12;99798.16;;;13.01;51.80
64189;BME280;50493;50.970;10.082;2023-05-20T02:38:38;99792.84;;;12.29;57.82
64189;BME280;50493;50.970;10.082;2023-05-20T02:41:03;99794.88;;;12.54;54.49
64189;BME280;50493;50.970;10.082;2023-05-20T02:43:29;99793.44;;;12.40;54.44
64189;BME280;50493;50.970;10.082;2023-05-20T02:45:55;99789.72;;;12.10;57.61
64189;BME280;50493;50.970;10.082;2023-05-20T02:48:22;99784.97;;;12.29;57.03
64189;BME280;50493;50.970;10.082;2023-05-20T02:50:47;99795.03;;;12.47;53.99
64189;BME280;50493;50.970;10.082;2023-05-20T02:53:12;99798.88;;;12.31;56.07
64189;BME280;50493;50.970;10.082;2023-05-20T02:55:39;99802.13;;;12.42;53.95
64189;BME280;50493;50.970;10.082;2023-05-20T02:58:04;99805.47;;;11.66;57.57
64189;BME280;50493;50.970;10.082;2023-05-20T03:00:30;99803.72;;;12.49;54.04
64189;BME280;50493;50.970;10.082;2023-05-20T03:02:55;99801.88;;;12.55;56.61
64189;BME280;50493;50.970;10.082;2023-05-20T03:05:22;99802.00;;;12.48;56.93
64189;BME280;50493;50.970;10.082;2023-05-20T03:07:47;99800.78;;;13.01;55.09
64189;BME280;50493;50.970;10.082;2023-05-20T03:10:13;99795.56;;;12.23;56.21
64189;BME280;50493;50.970;10.082;2023-05-20T03:12:38;99804.22;;;11.86;56.96
64189;BME280;50493;50.970;10.082;2023-05-20T03:15:04;99799.63;;;11.97;57.94
64189;BME280;50493;50.970;10.082;2023-05-20T03:17:30;99802.50;;;10.86;63.31
64189;BME280;50493;50.970;10.082;2023-05-20T03:19:55;99805.06;;;10.88;63.17
64189;BME280;50493;50.970;10.082;2023-05-20T03:22:22;99798.00;;;10.94;63.31
64189;BME280;50493;50.970;10.082;2023-05-20T03:24:47;99808.38;;;11.49;57.17
64189;BME280;50493;50.970;10.082;2023-05-20T03:27:13;99802.97;;;11.08;60.12
64189;BME280;50493;50.970;10.082;2023-05-20T03:29:38;99801.44;;;10.98;63.09
64189;BME280;50493;50.970;10.082;2023-05-20T03:32:04;99806.44;;;11.60;58.17
64189;BME280;50493;50.970;10.082;2023-05-20T03:34:29;99802.13;;;12.02;57.93
64189;BME280;50493;50.970;10.082;2023-05-20T03:36:55;99796.63;;;12.15;57.98
64189;BME280;50493;50.970;10.082;2023-05-20T03:39:22;99807.78;;;11.81;59.70
64189;BME280;50493;50.970;10.082;2023-05-20T03:41:48;99801.00;;;12.13;56.62
64189;BME280;50493;50.970;10.082;2023-05-20T03:44:13;99806.44;;;12.04;57.67
64189;BME280;50493;50.970;10.082;2023-05-20T03:46:39;99798.81;;;11.93;57.56
64189;BME280;50493;50.970;10.082;2023-05-20T03:49:04;99797.03;;;12.36;57.57
64189;BME280;50493;50.970;10.082;2023-05-20T03:51:30;99789.00;;;12.03;55.49
64189;BME280;50493;50.970;10.082;2023-05-20T03:53:55;99804.66;;;11.64;60.02
64189;BME280;50493;50.970;10.082;2023-05-20T03:56:22;99792.97;;;12.23;58.17
64189;BME280;50493;50.970;10.082;2023-05-20T03:58:47;99793.47;;;11.53;59.94
64189;BME280;50493;50.970;10.082;2023-05-20T04:01:13;99794.22;;;11.59;60.27
64189;BME280;50493;50.970;10.082;2023-05-20T04:03:38;99800.84;;;11.80;59.53
64189;BME280;50493;50.970;10.082;2023-05-20T04:06:03;99799.16;;;11.28;62.47
64189;BME280;50493;50.970;10.082;2023-05-20T04:08:29;99795.94;;;12.06;59.04
64189;BME280;50493;50.970;10.082;2023-05-20T04:10:55;99797.81;;;12.41;55.71
64189;BME280;50493;50.970;10.082;2023-05-20T04:13:23;99790.78;;;12.42;55.08
64189;BME280;50493;50.970;10.082;2023-05-20T04:15:49;99792.81;;;10.91;63.10
64189;BME280;50493;50.970;10.082;2023-05-20T04:18:15;99800.88;;;11.79;60.12
64189;BME280;50493;50.970;10.082;2023-05-20T04:20:41;99787.09;;;12.11;58.31
64189;BME280;50493;50.970;10.082;2023-05-20T04:23:06;99793.16;;;12.53;53.15
64189;BME280;50493;50.970;10.082;2023-05-20T04:25:32;99787.78;;;12.59;53.57
64189;BME280;50493;50.970;10.082;2023-05-20T04:27:58;99790.41;;;12.95;56.05
64189;BME280;50493;50.970;10.082;2023-05-20T04:30:24;99801.81;;;12.94;55.67
64189;BME280;50493;50.970;10.082;2023-05-20T04:32:50;99807.91;;;12.57;57.01
64189;BME280;50493;50.970;10.082;2023-05-20T04:35:16;99806.25;;;12.92;53.94
64189;BME280;50493;50.970;10.082;2023-05-20T04:37:41;99809.28;;;12.34;58.22
64189;BME280;50493;50.970;10.082;2023-05-20T04:40:09;99811.00;;;11.01;62.97
64189;BME280;50493;50.970;10.082;2023-05-20T04:42:36;99809.50;;;11.34;62.35
64189;BME280;50493;50.970;10.082;2023-05-20T04:45:03;99807.53;;;10.97;59.49
64189;BME280;50493;50.970;10.082;2023-05-20T04:47:31;99804.19;;;11.40;57.63
64189;BME280;50493;50.970;10.082;2023-05-20T04:50:02;99802.16;;;12.00;55.82
64189;BME280;50493;50.970;10.082;2023-05-20T04:52:29;99807.50;;;11.00;63.86
64189;BME280;50493;50.970;10.082;2023-05-20T04:54:54;99808.78;;;10.74;65.41
64189;BME280;50493;50.970;10.082;2023-05-20T04:57:22;99802.31;;;10.39;66.96
64189;BME280;50493;50.970;10.082;2023-05-20T04:59:47;99797.22;;;10.88;64.04
64189;BME280;50493;50.970;10.082;2023-05-20T05:02:13;99796.59;;;11.73;57.06
64189;BME280;50493;50.970;10.082;2023-05-20T05:04:40;99788.06;;;11.62;61.32
64189;BME280;50493;50.970;10.082;2023-05-20T05:07:05;99785.47;;;11.13;63.35
64189;BME280;50493;50.970;10.082;2023-05-20T05:09:31;99783.13;;;11.46;61.96
64189;BME280;50493;50.970;10.082;2023-05-20T05:11:56;99786.34;;;11.61;60.92
64189;BME280;50493;50.970;10.082;2023-05-20T05:14:21;99789.91;;;11.08;61.95
64189;BME280;50493;50.970;10.082;2023-05-20T05:16:47;99791.00;;;11.92;57.75
64189;BME280;50493;50.970;10.082;2023-05-20T05:19:13;99802.94;;;11.63;60.42
64189;BME280;50493;50.970;10.082;2023-05-20T05:21:40;99806.47;;;12.03;59.39
64189;BME280;50493;50.970;10.082;2023-05-20T05:24:05;99806.59;;;12.39;53.02
64189;BME280;50493;50.970;10.082;2023-05-20T05:26:31;99809.69;;;12.17;59.45
64189;BME280;50493;50.970;10.082;2023-05-20T05:28:56;99811.31;;;12.23;58.82
64189;BME280;50493;50.970;10.082;2023-05-20T05:31:21;99803.47;;;12.21;55.30
64189;BME280;50493;50.970;10.082;2023-05-20T05:33:47;99815.28;;;12.00;59.87
64189;BME280;50493;50.970;10.082;2023-05-20T05:36:12;99817.28;;;12.29;59.65
64189;BME280;50493;50.970;10.082;2023-05-20T05:38:39;99822.78;;;11.73;61.75
64189;BME280;50493;50.970;10.082;2023-05-20T05:41:04;99830.22;;;11.95;57.77
64189;BME280;50493;50.970;10.082;2023-05-20T05:43:30;99823.38;;;12.30;53.03
64189;BME280;50493;50.970;10.082;2023-05-20T05:45:55;99830.06;;;12.43;57.84
64189;BME280;50493;50.970;10.082;2023-05-20T05:48:21;99821.91;;;11.74;57.51
64189;BME280;50493;50.970;10.082;2023-05-20T05:50:47;99825.91;;;10.94;64.97
64189;BME280;50493;50.970;10.082;2023-05-20T05:53:12;99836.47;;;10.88;65.36
64189;BME280;50493;50.970;10.082;2023-05-20T05:55:39;99834.13;;;10.02;68.92
64189;BME280;50493;50.970;10.082;2023-05-20T05:58:04;99835.91;;;10.67;62.65
64189;BME280;50493;50.970;10.082;2023-05-20T06:00:30;99852.03;;;10.33;66.06
64189;BME280;50493;50.970;10.082;2023-05-20T06:02:55;99844.31;;;10.24;64.92
64189;BME280;50493;50.970;10.082;2023-05-20T06:05:20;99824.59;;;10.65;65.98
64189;BME280;50493;50.970;10.082;2023-05-20T06:07:46;99820.72;;;10.92;62.20
64189;BME280;50493;50.970;10.082;2023-05-20T06:10:11;99832.56;;;10.59;66.61
64189;BME280;50493;50.970;10.082;2023-05-20T06:12:38;99829.69;;;10.74;66.69
64189;BME280;50493;50.970;10.082;2023-05-20T06:15:04;99819.19;;;11.30;60.00
64189;BME280;50493;50.970;10.082;2023-05-20T06:17:31;99829.22;;;11.55;61.86
64189;BME280;50493;50.970;10.082;2023-05-20T06:19:56;99832.75;;;11.53;62.63
64189;BME280;50493;50.970;10.082;2023-05-20T06:22:21;99830.06;;;11.56;63.29
64189;BME280;50493;50.970;10.082;2023-05-20T06:24:47;99836.47;;;11.88;62.19
64189;BME280;50493;50.970;10.082;2023-05-20T06:27:12;99823.78;;;11.68;59.15
64189;BME280;50493;50.970;10.082;2023-05-20T06:29:38;99822.97;;;11.64;62.88
64189;BME280;50493;50.970;10.082;2023-05-20T06:32:04;99817.19;;;11.43;59.64
64189;BME280;50493;50.970;10.082;2023-05-20T06:34:30;99810.09;;;11.97;57.56
64189;BME280;50493;50.970;10.082;2023-05-20T06:36:55;99822.94;;;11.15;65.49
64189;BME280;50493;50.970;10.082;2023-05-20T06:39:21;99814.31;;;11.10;65.93
64189;BME280;50493;50.970;10.082;2023-05-20T06:41:47;99806.78;;;11.89;58.63
64189;BME280;50493;50.970;10.082;2023-05-20T06:44:12;99801.84;;;12.15;58.04
64189;BME280;50493;50.970;10.082;2023-05-20T06:46:39;99791.88;;;12.33;56.92
64189;BME280;50493;50.970;10.082;2023-05-20T06:49:04;99801.63;;;12.64;57.13
64189;BME280;50493;50.970;10.082;2023-05-20T06:51:29;99808.81;;;12.56;58.00
64189;BME280;50493;50.970;10.082;2023-05-20T06:53:55;99807.84;;;12.60;53.51
64189;BME280;50493;50.970;10.082;2023-05-20T06:56:20;99817.91;;;11.52;64.44
64189;BME280;50493;50.970;10.082;2023-05-20T06:58:46;99821.38;;;11.54;64.30
64189;BME280;50493;50.970;10.082;2023-05-20T07:01:11;99814.47;;;11.00;67.40
64189;BME280;50493;50.970;10.082;2023-05-20T07:03:38;99808.78;;;10.74;68.34
64189;BME280;50493;50.970;10.082;2023-05-20T07:06:04;99807.38;;;10.52;66.88
64189;BME280;50493;50.970;10.082;2023-05-20T07:08:29;99801.28;;;10.51;68.85
64189;BME280;50493;50.970;10.082;2023-05-20T07:10:55;99793.81;;;11.34;63.48
64189;BME280;50493;50.970;10.082;2023-05-20T07:13:21;99785.91;;;11.86;61.48
64189;BME280;50493;50.970;10.082;2023-05-20T07:15:48;99783.66;;;11.17;67.03
64189;BME280;50493;50.970;10.082;2023-05-20T07:18:13;99783.06;;;11.96;57.10
64189;BME280;50493;50.970;10.082;2023-05-20T07:20:40;99787.63;;;12.26;61.55
64189;BME280;50493;50.970;10.082;2023-05-20T07:23:06;99802.09;;;11.58;64.77
64189;BME280;50493;50.970;10.082;2023-05-20T07:25:31;99782.81;;;11.62;60.13
64189;BME280;50493;50.970;10.082;2023-05-20T07:27:57;99787.88;;;12.15;60.25
64189;BME280;50493;50.970;10.082;2023-05-20T07:30:24;99774.25;;;12.38;55.10
64189;BME280;50493;50.970;10.082;2023-05-20T07:32:49;99786.66;;;11.89;63.60
64189;BME280;50493;50.970;10.082;2023-05-20T07:35:14;99778.41;;;11.67;58.70
64189;BME280;50493;50.970;10.082;2023-05-20T07:37:41;99765.41;;;12.42;59.09
64189;BME280;50493;50.970;10.082;2023-05-20T07:40:07;99766.31;;;12.80;59.68
64189;BME280;50493;50.970;10.082;2023-05-20T07:42:33;99767.13;;;12.82;56.75
64189;BME280;50493;50.970;10.082;2023-05-20T07:44:59;99764.56;;;12.79;54.06
64189;BME280;50493;50.970;10.082;2023-05-20T07:47:24;99774.19;;;12.02;63.23
64189;BME280;50493;50.970;10.082;2023-05-20T07:49:50;99778.13;;;12.22;62.62
64189;BME280;50493;50.970;10.082;2023-05-20T07:52:15;99768.28;;;12.69;54.37
64189;BME280;50493;50.970;10.082;2023-05-20T07:54:42;99762.25;;;13.02;54.54
64189;BME280;50493;50.970;10.082;2023-05-20T07:57:08;99765.91;;;12.21;62.06
64189;BME280;50493;50.970;10.082;2023-05-20T07:59:33;99765.25;;;12.88;60.15
64189;BME280;50493;50.970;10.082;2023-05-20T08:01:59;99765.81;;;12.99;56.59
64189;BME280;50493;50.970;10.082;2023-05-20T08:04:24;99763.94;;;13.04;57.04
64189;BME280;50493;50.970;10.082;2023-05-20T08:06:51;99759.13;;;13.22;55.68
64189;BME280;50493;50.970;10.082;2023-05-20T08:09:16;99753.78;;;12.54;61.24
64189;BME280;50493;50.970;10.082;2023-05-20T08:11:43;99755.28;;;13.00;52.77
64189;BME280;50493;50.970;10.082;2023-05-20T08:14:08;99767.84;;;12.89;60.53
64189;BME280;50493;50.970;10.082;2023-05-20T08:16:35;99767.22;;;12.40;61.82
64189;BME280;50493;50.970;10.082;2023-05-20T08:19:00;99763.22;;;12.63;57.14
64189;BME280;50493;50.970;10.082;2023-05-20T08:21:26;99776.81;;;12.41;61.99
64189;BME280;50493;50.970;10.082;2023-05-20T08:23:51;99777.03;;;11.91;63.43
64189;BME280;50493;50.970;10.082;2023-05-20T08:26:16;99774.28;;;12.74;57.99
64189;BME280;50493;50.970;10.082;2023-05-20T08:28:43;99768.50;;;13.32;55.43
64189;BME280;50493;50.970;10.082;2023-05-20T08:31:08;99766.84;;;12.56;55.32
64189;BME280;50493;50.970;10.082;2023-05-20T08:33:34;99771.13;;;12.61;60.72
64189;BME280;50493;50.970;10.082;2023-05-20T08:36:00;99768.38;;;11.88;63.40
64189;BME280;50493;50.970;10.082;2023-05-20T08:38:26;99777.25;;;11.34;66.27
64189;BME280;50493;50.970;10.082;2023-05-20T08:40:52;99775.94;;;11.58;66.48
64189;BME280;50493;50.970;10.082;2023-05-20T08:43:18;99768.03;;;12.42;62.20
64189;BME280;50493;50.970;10.082;2023-05-20T08:45:45;99771.94;;;11.84;63.42
64189;BME280;50493;50.970;10.082;2023-05-20T08:48:10;99763.13;;;11.88;64.98
64189;BME280;50493;50.970;10.082;2023-05-20T08:50:37;99762.50;;;12.56;58.85
64189;BME280;50493;50.970;10.082;2023-05-20T08:53:03;99773.59;;;12.28;61.82
64189;BME280;50493;50.970;10.082;2023-05-20T08:55:34;99758.56;;;13.10;57.00
64189;BME280;50493;50.970;10.082;2023-05-20T08:58:02;99761.44;;;12.26;63.72
64189;BME280;50493;50.970;10.082;2023-05-20T09:00:27;99774.31;;;12.35;63.28
64189;BME280;50493;50.970;10.082;2023-05-20T09:02:54;99761.00;;;12.05;64.18
64189;BME280;50493;50.970;10.082;2023-05-20T09:05:20;99764.28;;;12.54;63.66
64189;BME280;50493;50.970;10.082;2023-05-20T09:07:47;99761.78;;;12.49;56.25
64189;BME280;50493;50.970;10.082;2023-05-20T09:10:12;99758.31;;;12.85;58.38
64189;BME280;50493;50.970;10.082;2023-05-20T09:12:38;99747.59;;;12.94;58.86
64189;BME280;50493;50.970;10.082;2023-05-20T09:15:04;99747.34;;;13.37;57.99
64189;BME280;50493;50.970;10.082;2023-05-20T09:17:31;99754.81;;;12.48;57.61
64189;BME280;50493;50.970;10.082;2023-05-20T09:19:57;99752.63;;;12.66;56.69
64189;BME280;50493;50.970;10.082;2023-05-20T09:22:23;99744.44;;;13.14;55.42
64189;BME280;50493;50.970;10.082;2023-05-20T09:24:49;99741.66;;;13.21;59.25
64189;BME280;50493;50.970;10.082;2023-05-20T09:27:15;99748.66;;;12.86;61.56
64189;BME280;50493;50.970;10.082;2023-05-20T09:29:41;99733.91;;;13.47;55.04
64189;BME280;50493;50.970;10.082;2023-05-20T09:32:08;99741.16;;;13.06;59.74
64189;BME280;50493;50.970;10.082;2023-05-20T09:34:34;99731.50;;;12.72;58.85
64189;BME280;50493;50.970;10.082;2023-05-20T09:37:02;99748.38;;;12.98;54.54
64189;BME280;50493;50.970;10.082;2023-05-20T09:39:29;99731.13;;;13.54;53.68
64189;BME280;50493;50.970;10.082;2023-05-20T09:42:01;99740.13;;;13.75;54.34
64189;BME280;50493;50.970;10.082;2023-05-20T09:44:30;99732.88;;;13.83;51.99
64189;BME280;50493;50.970;10.082;2023-05-20T09:46:56;99735.63;;;14.10;58.23
64189;BME280;50493;50.970;10.082;2023-05-20T09:49:24;99732.81;;;13.55;57.79
64189;BME280;50493;50.970;10.082;2023-05-20T09:51:51;99732.88;;;14.14;54.08
64189;BME280;50493;50.970;10.082;2023-05-20T09:54:18;99734.69;;;14.12;55.18
64189;BME280;50493;50.970;10.082;2023-05-20T09:56:45;99727.94;;;14.59;57.62
64189;BME280;50493;50.970;10.082;2023-05-20T09:59:12;99716.50;;;14.33;52.30
64189;BME280;50493;50.970;10.082;2023-05-20T10:01:39;99716.13;;;14.99;52.67
64189;BME280;50493;50.970;10.082;2023-05-20T10:04:05;99719.19;;;14.85;51.03
64189;BME280;50493;50.970;10.082;2023-05-20T10:06:44;99719.53;;;15.26;54.68
64189;BME280;50493;50.970;10.082;2023-05-20T10:09:27;99702.91;;;15.49;49.90
64189;BME280;50493;50.970;10.082;2023-05-20T10:12:05;99708.03;;;15.29;54.72
64189;BME280;50493;50.970;10.082;2023-05-20T10:14:40;99710.34;;;15.38;52.93
64189;BME280;50493;50.970;10.082;2023-05-20T10:17:13;99699.03;;;15.36;55.89
64189;BME280;50493;50.970;10.082;2023-05-20T10:19:41;99706.19;;;15.07;55.34
64189;BME280;50493;50.970;10.082;2023-05-20T10:22:08;99693.84;;;15.33;53.93
64189;BME280;50493;50.970;10.082;2023-05-20T10:24:36;99695.69;;;14.27;58.31
64189;BME280;50493;50.970;10.082;2023-05-20T10:27:04;99696.03;;;14.96;54.39
64189;BME280;50493;50.970;10.082;2023-05-20T10:29:41;99709.16;;;14.71;55.79
64189;BME280;50493;50.970;10.082;2023-05-20T10:32:07;99692.66;;;14.66;54.42
64189;BME280;50493;50.970;10.082;2023-05-20T10:34:44;99692.22;;;14.78;54.45
64189;BME280;50493;50.970;10.082;2023-05-20T10:37:21;99695.47;;;14.87;54.75
64189;BME280;50493;50.970;10.082;2023-05-20T10:39:48;99686.44;;;15.44;53.78
64189;BME280;50493;50.970;10.082;2023-05-20T10:42:13;99685.13;;;16.02;48.79
64189;BME280;50493;50.970;10.082;2023-05-20T10:44:40;99681.41;;;16.30;48.31
64189;BME280;50493;50.970;10.082;2023-05-20T10:47:06;99681.91;;;16.17;51.50
64189;BME280;50493;50.970;10.082;2023-05-20T10:49:32;99690.91;;;13.81;57.53
64189;BME280;50493;50.970;10.082;2023-05-20T10:51:58;99674.59;;;14.55;55.60
64189;BME280;50493;50.970;10.082;2023-05-20T10:54:24;99679.38;;;14.96;52.99
64189;BME280;50493;50.970;10.082;2023-05-20T10:56:52;99680.88;;;15.03;54.44
64189;BME280;50493;50.970;10.082;2023-05-20T10:59:18;99678.03;;;15.80;51.41
64189;BME280;50493;50.970;10.082;2023-05-20T11:01:45;99681.06;;;15.22;53.42
64189;BME280;50493;50.970;10.082;2023-05-20T11:04:12;99681.09;;;14.97;56.04
64189;BME280;50493;50.970;10.082;2023-05-20T11:06:38;99685.94;;;15.80;52.82
64189;BME280;50493;50.970;10.082;2023-05-20T11:09:03;99695.00;;;15.97;49.70
64189;BME280;50493;50.970;10.082;2023-05-20T11:11:32;99691.75;;;15.66;50.48
64189;BME280;50493;50.970;10.082;2023-05-20T11:13:58;99689.47;;;16.25;49.08
64189;BME280;50493;50.970;10.082;2023-05-20T11:16:24;99694.63;;;16.06;49.39
64189;BME280;50493;50.970;10.082;2023-05-20T11:18:50;99699.59;;;14.68;54.56
64189;BME280;50493;50.970;10.082;2023-05-20T11:21:17;99691.91;;;14.88;53.87
64189;BME280;50493;50.970;10.082;2023-05-20T11:23:42;99686.53;;;15.41;52.92
64189;BME280;50493;50.970;10.082;2023-05-20T11:26:07;99695.06;;;15.72;51.42
64189;BME280;50493;50.970;10.082;2023-05-20T11:28:34;99690.25;;;15.35;53.56
64189;BME280;50493;50.970;10.082;2023-05-20T11:31:01;99691.47;;;15.74;52.47
64189;BME280;50493;50.970;10.082;2023-05-20T11:33:28;99685.69;;;15.15;52.54
64189;BME280;50493;50.970;10.082;2023-05-20T11:35:55;99676.78;;;15.20;52.76
64189;BME280;50493;50.970;10.082;2023-05-20T11:38:21;99687.22;;;15.94;52.78
64189;BME280;50493;50.970;10.082;2023-05-20T11:40:50;99686.84;;;14.01;57.87
64189;BME280;50493;50.970;10.082;2023-05-20T11:43:16;99675.41;;;15.09;54.27
64189;BME280;50493;50.970;10.082;2023-05-20T11:45:43;99672.56;;;15.39;53.12
64189;BME280;50493;50.970;10.082;2023-05-20T11:48:10;99678.63;;;15.65;52.82
64189;BME280;50493;50.970;10.082;2023-05-20T11:50:38;99681.06;;;15.22;53.00
64189;BME280;50493;50.970;10.082;2023-05-20T11:53:06;99676.63;;;14.99;54.77
64189;BME280;50493;50.970;10.082;2023-05-20T11:55:32;99677.94;;;15.83;52.38
64189;BME280;50493;50.970;10.082;2023-05-20T11:57:58;99673.56;;;15.59;52.85
64189;BME280;50493;50.970;10.082;2023-05-20T12:00:24;99669.25;;;16.26;50.32
64189;BME280;50493;50.970;10.082;2023-05-20T12:02:49;99668.88;;;16.35;49.79
64189;BME280;50493;50.970;10.082;2023-05-20T12:05:16;99654.94;;;16.74;48.84
64189;BME280;50493;50.970;10.082;2023-05-20T12:07:42;99664.94;;;16.01;51.92
64189;BME280;50493;50.970;10.082;2023-05-20T12:10:08;99667.25;;;16.53;52.51
64189;BME280;50493;50.970;10.082;2023-05-20T12:12:34;99656.00;;;17.11;50.11
64189;BME280;50493;50.970;10.082;2023-05-20T12:15:00;99651.38;;;17.35;50.02
64189;BME280;50493;50.970;10.082;2023-05-20T12:17:26;99652.31;;;17.34;49.13
64189;BME280;50493;50.970;10.082;2023-05-20T12:19:51;99645.97;;;16.99;49.11
64189;BME280;50493;50.970;10.082;2023-05-20T12:22:18;99644.69;;;17.08;49.36
64189;BME280;50493;50.970;10.082;2023-05-20T12:24:43;99638.44;;;16.69;51.55
64189;BME280;50493;50.970;10.082;2023-05-20T12:27:08;99641.97;;;17.49;49.60
64189;BME280;50493;50.970;10.082;2023-05-20T12:29:34;99649.75;;;16.30;52.45
64189;BME280;50493;50.970;10.082;2023-05-20T12:31:59;99632.50;;;16.43;51.41
64189;BME280;50493;50.970;10.082;2023-05-20T12:34:25;99633.97;;;17.50;48.61
64189;BME280;50493;50.970;10.082;2023-05-20T12:36:50;99632.88;;;17.55;47.81
64189;BME280;50493;50.970;10.082;2023-05-20T12:39:17;99619.69;;;18.10;46.82
64189;BME280;50493;50.970;10.082;2023-05-20T12:41:43;99621.06;;;18.54;47.52
64189;BME280;50493;50.970;10.082;2023-05-20T12:44:09;99618.94;;;18.43;45.87